sensor_id;sensor_type;location;lat;lon;timestamp;P1;durP1;ratioP1;P2;durP2;ratioP2
39098;SDS011;24844;52.380;7.018;2023-05-20T00:01:57;11.50;;;4.22;;
39098;SDS011;24844;52.380;7.018;2023-05-20T00:04:23;8.75;;;3.72;;
39098;SDS011;24844;52.380;7.018;2023-05-20T00:06:48;9.38;;;3.65;;
39098;SDS011;24844;52.380;7.018;2023-05-20T00:09:14;10.95;;;3.47;;
39098;SDS011;24844;52.380;7.018;2023-05-20T00:11:41;9.02;;;3.65;;
39098;SDS011;24844;52.380;7.018;2023-05-20T00:14:07;9.10;;;3.88;;
39098;SDS011;24844;52.380;7.018;2023-05-20T00:16:32;12.27;;;3.70;;
39098;SDS011;24844;52.380;7.018;2023-05-20T00:18:58;8.60;;;3.78;;
39098;SDS011;24844;52.380;7.018;2023-05-20T00:21:23;6.05;;;3.25;;
39098;SDS011;24844;52.380;7.018;2023-05-20T00:23:49;10.07;;;3.80;;
39098;SDS011;24844;52.380;7.018;2023-05-20T00:26:15;13.43;;;3.58;;
39098;SDS011;24844;52.380;7.018;2023-05-20T00:28:40;8.40;;;3.47;;
39098;SDS011;24844;52.380;7.018;2023-05-20T00:31:06;10.32;;;4.13;;
39098;SDS011;24844;52.380;7.018;2023-05-20T00:33:32;8.27;;;3.70;;
39098;SDS011;24844;52.380;7.018;2023-05-20T00:36:00;6.47;;;3.50;;
39098;SDS011;24844;52.380;7.018;2023-05-20T00:38:26;8.25;;;3.22;;
39098;SDS011;24844;52.380;7.018;2023-05-20T00:40:51;7.30;;;3.13;;
39098;SDS011;24844;52.380;7.018;2023-05-20T00:43:17;7.13;;;3.45;;
39098;SDS011;24844;52.380;7.018;2023-05-20T00:45:44;7.40;;;3.10;;
39098;SDS011;24844;52.380;7.018;2023-05-20T00:48:10;10.35;;;3.42;;
39098;SDS011;24844;52.380;7.018;2023-05-20T00:50:36;9.75;;;3.63;;
39098;SDS011;24844;52.380;7.018;2023-05-20T00:53:02;8.45;;;3.40;;
39098;SDS011;24844;52.380;7.018;2023-05-20T00:55:28;9.43;;;3.40;;
39098;SDS011;24844;52.380;7.018;2023-05-20T00:57:54;9.25;;;3.35;;
39098;SDS011;24844;52.380;7.018;2023-05-20T01:00:20;7.53;;;3.25;;
39098;SDS011;24844;52.380;7.018;2023-05-20T01:02:46;10.35;;;3.72;;
39098;SDS011;24844;52.380;7.018;2023-05-20T01:05:11;8.18;;;3.28;;
39098;SDS011;24844;52.380;7.018;2023-05-20T01:07:37;7.22;;;3.15;;
39098;SDS011;24844;52.380;7.018;2023-05-20T01:10:03;5.78;;;2.95;;
39098;SDS011;24844;52.380;7.018;2023-05-20T01:12:36;14.52;;;2.83;;
39098;SDS011;24844;52.380;7.018;2023-05-20T01:17:32;6.45;;;2.83;;
39098;SDS011;24844;52.380;7.018;2023-05-20T01:20:05;8.13;;;3.10;;
39098;SDS011;24844;52.380;7.018;2023-05-20T01:22:35;6.25;;;3.22;;
39098;SDS011;24844;52.380;7.018;2023-05-20T01:25:02;7.90;;;3.10;;
39098;SDS011;24844;52.380;7.018;2023-05-20T01:27:29;8.90;;;3.38;;
39098;SDS011;24844;52.380;7.018;2023-05-20T01:29:55;5.80;;;2.80;;
39098;SDS011;24844;52.380;7.018;2023-05-20T01:32:32;7.18;;;2.78;;
39098;SDS011;24844;52.380;7.018;2023-05-20T01:35:02;5.28;;;2.63;;
39098;SDS011;24844;52.380;7.018;2023-05-20T01:37:28;4.65;;;2.75;;
39098;SDS011;24844;52.380;7.018;2023-05-20T01:39:55;7.47;;;2.97;;
39098;SDS011;24844;52.380;7.018;2023-05-20T01:42:21;5.75;;;2.95;;
39098;SDS011;24844;52.380;7.018;2023-05-20T01:44:50;7.22;;;3.15;;
39098;SDS011;24844;52.380;7.018;2023-05-20T01:47:16;8.02;;;3.72;;
39098;SDS011;24844;52.380;7.018;2023-05-20T01:49:42;5.32;;;2.70;;
39098;SDS011;24844;52.380;7.018;2023-05-20T01:52:10;13.20;;;3.63;;
39098;SDS011;24844;52.380;7.018;2023-05-20T01:54:35;10.32;;;3.20;;
39098;SDS011;24844;52.380;7.018;2023-05-20T01:57:01;11.80;;;2.88;;
39098;SDS011;24844;52.380;7.018;2023-05-20T01:59:27;5.95;;;2.90;;
39098;SDS011;24844;52.380;7.018;2023-05-20T02:01:52;4.38;;;2.60;;
39098;SDS011;24844;52.380;7.018;2023-05-20T02:04:18;7.53;;;2.83;;
39098;SDS011;24844;52.380;7.018;2023-05-20T02:06:43;9.07;;;3.05;;
39098;SDS011;24844;52.380;7.018;2023-05-20T02:09:09;7.65;;;3.08;;
39098;SDS011;24844;52.380;7.018;2023-05-20T02:11:35;9.13;;;3.10;;
39098;SDS011;24844;52.380;7.018;2023-05-20T02:14:01;8.50;;;3.15;;
39098;SDS011;24844;52.380;7.018;2023-05-20T02:16:26;9.40;;;3.60;;
39098;SDS011;24844;52.380;7.018;2023-05-20T02:18:52;7.45;;;3.17;;
39098;SDS011;24844;52.380;7.018;2023-05-20T02:21:17;6.63;;;3.38;;
39098;SDS011;24844;52.380;7.018;2023-05-20T02:23:43;9.45;;;3.05;;
39098;SDS011;24844;52.380;7.018;2023-05-20T02:26:09;4.55;;;2.72;;
39098;SDS011;24844;52.380;7.018;2023-05-20T02:28:34;5.10;;;2.83;;
39098;SDS011;24844;52.380;7.018;2023-05-20T02:31:02;10.35;;;3.38;;
39098;SDS011;24844;52.380;7.018;2023-05-20T02:33:27;6.32;;;3.47;;
39098;SDS011;24844;52.380;7.018;2023-05-20T02:35:53;4.18;;;2.75;;
39098;SDS011;24844;52.380;7.018;2023-05-20T02:38:19;7.50;;;3.03;;
39098;SDS011;24844;52.380;7.018;2023-05-20T02:40:44;7.00;;;3.22;;
39098;SDS011;24844;52.380;7.018;2023-05-20T02:43:10;10.00;;;2.95;;
39098;SDS011;24844;52.380;7.018;2023-05-20T02:45:35;6.03;;;2.95;;
39098;SDS011;24844;52.380;7.018;2023-05-20T02:48:01;8.63;;;3.33;;
39098;SDS011;24844;52.380;7.018;2023-05-20T02:50:27;9.27;;;3.03;;
39098;SDS011;24844;52.380;7.018;2023-05-20T02:52:52;8.68;;;3.03;;
39098;SDS011;24844;52.380;7.018;2023-05-20T02:55:18;8.70;;;3.10;;
39098;SDS011;24844;52.380;7.018;2023-05-20T02:57:43;7.15;;;2.72;;
39098;SDS011;24844;52.380;7.018;2023-05-20T03:00:09;4.95;;;3.00;;
39098;SDS011;24844;52.380;7.018;2023-05-20T03:02:35;6.00;;;3.05;;
39098;SDS011;24844;52.380;7.018;2023-05-20T03:05:01;6.10;;;3.20;;
39098;SDS011;24844;52.380;7.018;2023-05-20T03:07:28;7.38;;;3.08;;
39098;SDS011;24844;52.380;7.018;2023-05-20T03:09:54;7.68;;;3.58;;
39098;SDS011;24844;52.380;7.018;2023-05-20T03:12:20;5.15;;;3.08;;
39098;SDS011;24844;52.380;7.018;2023-05-20T03:14:45;8.32;;;4.10;;
39098;SDS011;24844;52.380;7.018;2023-05-20T03:17:11;8.90;;;2.97;;
39098;SDS011;24844;52.380;7.018;2023-05-20T03:19:36;7.85;;;3.08;;
39098;SDS011;24844;52.380;7.018;2023-05-20T03:22:02;8.52;;;3.58;;
39098;SDS011;24844;52.380;7.018;2023-05-20T03:24:28;6.95;;;2.85;;
39098;SDS011;24844;52.380;7.018;2023-05-20T03:26:54;7.53;;;3.40;;
39098;SDS011;24844;52.380;7.018;2023-05-20T03:29:20;5.20;;;3.13;;
39098;SDS011;24844;52.380;7.018;2023-05-20T03:31:47;6.63;;;3.35;;
39098;SDS011;24844;52.380;7.018;2023-05-20T03:34:12;6.68;;;3.50;;
39098;SDS011;24844;52.380;7.018;2023-05-20T03:36:38;8.73;;;3.47;;
39098;SDS011;24844;52.380;7.018;2023-05-20T03:39:03;6.88;;;3.28;;
39098;SDS011;24844;52.380;7.018;2023-05-20T03:41:29;9.50;;;3.42;;
39098;SDS011;24844;52.380;7.018;2023-05-20T03:43:54;7.30;;;3.20;;
39098;SDS011;24844;52.380;7.018;2023-05-20T03:46:20;7.18;;;3.25;;
39098;SDS011;24844;52.380;7.018;2023-05-20T03:48:45;8.60;;;3.22;;
39098;SDS011;24844;52.380;7.018;2023-05-20T03:51:11;5.22;;;2.88;;
39098;SDS011;24844;52.380;7.018;2023-05-20T03:53:37;6.15;;;3.42;;
39098;SDS011;24844;52.380;7.018;2023-05-20T03:56:02;5.22;;;2.63;;
39098;SDS011;24844;52.380;7.018;2023-05-20T03:58:28;3.92;;;2.80;;
39098;SDS011;24844;52.380;7.018;2023-05-20T04:00:55;5.53;;;2.92;;
39098;SDS011;24844;52.380;7.018;2023-05-20T04:03:20;3.95;;;2.30;;
39098;SDS011;24844;52.380;7.018;2023-05-20T04:05:46;5.53;;;2.90;;
39098;SDS011;24844;52.380;7.018;2023-05-20T04:08:12;5.38;;;3.10;;
39098;SDS011;24844;52.380;7.018;2023-05-20T04:10:39;4.20;;;2.70;;
39098;SDS011;24844;52.380;7.018;2023-05-20T04:13:06;6.75;;;2.38;;
39098;SDS011;24844;52.380;7.018;2023-05-20T04:15:34;8.98;;;2.90;;
39098;SDS011;24844;52.380;7.018;2023-05-20T04:18:00;4.32;;;2.83;;
39098;SDS011;24844;52.380;7.018;2023-05-20T04:20:26;7.38;;;2.83;;
39098;SDS011;24844;52.380;7.018;2023-05-20T04:22:51;5.78;;;3.05;;
39098;SDS011;24844;52.380;7.018;2023-05-20T04:25:18;6.30;;;2.60;;
39098;SDS011;24844;52.380;7.018;2023-05-20T04:27:43;4.97;;;2.72;;
39098;SDS011;24844;52.380;7.018;2023-05-20T04:30:10;6.20;;;2.75;;
39098;SDS011;24844;52.380;7.018;2023-05-20T04:32:36;7.97;;;2.80;;
39098;SDS011;24844;52.380;7.018;2023-05-20T04:35:03;4.97;;;2.40;;
39098;SDS011;24844;52.380;7.018;2023-05-20T04:37:35;5.95;;;2.42;;
39098;SDS011;24844;52.380;7.018;2023-05-20T04:40:01;4.53;;;2.30;;
39098;SDS011;24844;52.380;7.018;2023-05-20T04:42:27;7.63;;;2.40;;
39098;SDS011;24844;52.380;7.018;2023-05-20T04:44:53;4.22;;;2.00;;
39098;SDS011;24844;52.380;7.018;2023-05-20T04:47:20;4.25;;;2.20;;
39098;SDS011;24844;52.380;7.018;2023-05-20T04:49:45;6.15;;;1.90;;
39098;SDS011;24844;52.380;7.018;2023-05-20T04:52:11;5.10;;;2.35;;
39098;SDS011;24844;52.380;7.018;2023-05-20T04:54:36;6.38;;;2.38;;
39098;SDS011;24844;52.380;7.018;2023-05-20T04:57:02;5.55;;;2.38;;
39098;SDS011;24844;52.380;7.018;2023-05-20T04:59:28;6.32;;;2.45;;
39098;SDS011;24844;52.380;7.018;2023-05-20T05:01:53;3.33;;;1.80;;
39098;SDS011;24844;52.380;7.018;2023-05-20T05:04:19;3.85;;;2.00;;
39098;SDS011;24844;52.380;7.018;2023-05-20T05:06:46;3.65;;;1.75;;
39098;SDS011;24844;52.380;7.018;2023-05-20T05:09:12;3.83;;;2.10;;
39098;SDS011;24844;52.380;7.018;2023-05-20T05:11:38;2.90;;;1.88;;
39098;SDS011;24844;52.380;7.018;2023-05-20T05:14:03;5.13;;;2.30;;
39098;SDS011;24844;52.380;7.018;2023-05-20T05:16:29;4.75;;;1.77;;
39098;SDS011;24844;52.380;7.018;2023-05-20T05:18:55;5.00;;;2.00;;
39098;SDS011;24844;52.380;7.018;2023-05-20T05:21:20;4.75;;;1.90;;
39098;SDS011;24844;52.380;7.018;2023-05-20T05:23:46;7.55;;;1.80;;
39098;SDS011;24844;52.380;7.018;2023-05-20T05:26:12;5.38;;;2.33;;
39098;SDS011;24844;52.380;7.018;2023-05-20T05:28:39;3.05;;;1.80;;
39098;SDS011;24844;52.380;7.018;2023-05-20T05:31:06;4.50;;;1.90;;
39098;SDS011;24844;52.380;7.018;2023-05-20T05:33:32;4.55;;;1.80;;
39098;SDS011;24844;52.380;7.018;2023-05-20T05:35:57;4.00;;;1.90;;
39098;SDS011;24844;52.380;7.018;2023-05-20T05:38:23;3.00;;;1.90;;
39098;SDS011;24844;52.380;7.018;2023-05-20T05:40:49;3.30;;;1.90;;
39098;SDS011;24844;52.380;7.018;2023-05-20T05:43:15;5.20;;;1.98;;
39098;SDS011;24844;52.380;7.018;2023-05-20T05:45:40;5.15;;;1.83;;
39098;SDS011;24844;52.380;7.018;2023-05-20T05:48:07;5.93;;;2.00;;
39098;SDS011;24844;52.380;7.018;2023-05-20T05:50:32;4.40;;;2.17;;
39098;SDS011;24844;52.380;7.018;2023-05-20T05:52:58;4.07;;;1.88;;
39098;SDS011;24844;52.380;7.018;2023-05-20T05:55:23;2.58;;;1.80;;
39098;SDS011;24844;52.380;7.018;2023-05-20T05:57:49;4.88;;;1.90;;
39098;SDS011;24844;52.380;7.018;2023-05-20T06:00:15;2.78;;;1.67;;
39098;SDS011;24844;52.380;7.018;2023-05-20T06:02:41;3.20;;;1.85;;
39098;SDS011;24844;52.380;7.018;2023-05-20T06:05:07;5.55;;;2.05;;
39098;SDS011;24844;52.380;7.018;2023-05-20T06:07:33;2.80;;;1.80;;
39098;SDS011;24844;52.380;7.018;2023-05-20T06:09:58;5.60;;;2.08;;
39098;SDS011;24844;52.380;7.018;2023-05-20T06:12:24;2.95;;;1.80;;
39098;SDS011;24844;52.380;7.018;2023-05-20T06:14:50;4.53;;;2.13;;
39098;SDS011;24844;52.380;7.018;2023-05-20T06:17:15;5.75;;;1.70;;
39098;SDS011;24844;52.380;7.018;2023-05-20T06:19:41;6.68;;;2.20;;
39098;SDS011;24844;52.380;7.018;2023-05-20T06:22:06;5.63;;;2.03;;
39098;SDS011;24844;52.380;7.018;2023-05-20T06:24:32;3.25;;;1.92;;
39098;SDS011;24844;52.380;7.018;2023-05-20T06:26:58;2.92;;;1.77;;
39098;SDS011;24844;52.380;7.018;2023-05-20T06:29:24;4.60;;;2.10;;
39098;SDS011;24844;52.380;7.018;2023-05-20T06:31:50;4.72;;;1.95;;
39098;SDS011;24844;52.380;7.018;2023-05-20T06:34:15;4.65;;;2.00;;
39098;SDS011;24844;52.380;7.018;2023-05-20T06:36:41;4.63;;;2.08;;
39098;SDS011;24844;52.380;7.018;2023-05-20T06:39:06;2.95;;;1.83;;
39098;SDS011;24844;52.380;7.018;2023-05-20T06:41:36;5.70;;;2.13;;
39098;SDS011;24844;52.380;7.018;2023-05-20T06:44:03;7.05;;;2.15;;
39098;SDS011;24844;52.380;7.018;2023-05-20T06:46:29;6.90;;;2.10;;
39098;SDS011;24844;52.380;7.018;2023-05-20T06:48:54;3.50;;;2.47;;
39098;SDS011;24844;52.380;7.018;2023-05-20T06:51:20;2.58;;;1.90;;
39098;SDS011;24844;52.380;7.018;2023-05-20T06:53:46;3.72;;;2.10;;
39098;SDS011;24844;52.380;7.018;2023-05-20T06:56:11;5.00;;;2.03;;
39098;SDS011;24844;52.380;7.018;2023-05-20T06:58:37;3.15;;;1.90;;
39098;SDS011;24844;52.380;7.018;2023-05-20T07:01:02;3.42;;;2.03;;
39098;SDS011;24844;52.380;7.018;2023-05-20T07:03:28;3.30;;;2.15;;
39098;SDS011;24844;52.380;7.018;2023-05-20T07:05:54;2.38;;;1.85;;
39098;SDS011;24844;52.380;7.018;2023-05-20T07:08:19;5.53;;;2.05;;
39098;SDS011;24844;52.380;7.018;2023-05-20T07:10:45;4.00;;;2.20;;
39098;SDS011;24844;52.380;7.018;2023-05-20T07:13:10;4.07;;;1.98;;
39098;SDS011;24844;52.380;7.018;2023-05-20T07:15:36;3.42;;;2.00;;
39098;SDS011;24844;52.380;7.018;2023-05-20T07:18:02;4.38;;;2.00;;
39098;SDS011;24844;52.380;7.018;2023-05-20T07:20:27;3.17;;;1.83;;
39098;SDS011;24844;52.380;7.018;2023-05-20T07:22:53;4.85;;;2.08;;
39098;SDS011;24844;52.380;7.018;2023-05-20T07:25:19;4.80;;;2.35;;
39098;SDS011;24844;52.380;7.018;2023-05-20T07:27:44;3.95;;;2.17;;
39098;SDS011;24844;52.380;7.018;2023-05-20T07:30:10;5.40;;;1.90;;
39098;SDS011;24844;52.380;7.018;2023-05-20T07:32:36;3.97;;;1.90;;
39098;SDS011;24844;52.380;7.018;2023-05-20T07:35:02;4.93;;;2.00;;
39098;SDS011;24844;52.380;7.018;2023-05-20T07:37:27;9.65;;;2.42;;
39098;SDS011;24844;52.380;7.018;2023-05-20T07:39:53;5.55;;;1.90;;
39098;SDS011;24844;52.380;7.018;2023-05-20T07:42:18;5.07;;;1.80;;
39098;SDS011;24844;52.380;7.018;2023-05-20T07:44:44;2.75;;;2.03;;
39098;SDS011;24844;52.380;7.018;2023-05-20T07:47:10;5.07;;;1.90;;
39098;SDS011;24844;52.380;7.018;2023-05-20T07:49:35;3.30;;;2.00;;
39098;SDS011;24844;52.380;7.018;2023-05-20T07:52:01;2.88;;;1.60;;
39098;SDS011;24844;52.380;7.018;2023-05-20T07:54:26;4.90;;;2.13;;
39098;SDS011;24844;52.380;7.018;2023-05-20T07:56:52;3.78;;;1.80;;
39098;SDS011;24844;52.380;7.018;2023-05-20T07:59:17;6.75;;;2.10;;
39098;SDS011;24844;52.380;7.018;2023-05-20T08:01:43;6.70;;;2.05;;
39098;SDS011;24844;52.380;7.018;2023-05-20T08:04:09;4.82;;;1.98;;
39098;SDS011;24844;52.380;7.018;2023-05-20T08:06:34;9.98;;;2.17;;
39098;SDS011;24844;52.380;7.018;2023-05-20T08:09:01;5.57;;;1.90;;
39098;SDS011;24844;52.380;7.018;2023-05-20T08:11:26;5.70;;;2.00;;
39098;SDS011;24844;52.380;7.018;2023-05-20T08:13:52;5.30;;;1.80;;
39098;SDS011;24844;52.380;7.018;2023-05-20T08:16:19;6.55;;;1.95;;
39098;SDS011;24844;52.380;7.018;2023-05-20T08:18:45;8.43;;;2.27;;
39098;SDS011;24844;52.380;7.018;2023-05-20T08:21:11;4.55;;;2.22;;
39098;SDS011;24844;52.380;7.018;2023-05-20T08:23:36;3.40;;;1.80;;
39098;SDS011;24844;52.380;7.018;2023-05-20T08:26:02;2.50;;;1.52;;
39098;SDS011;24844;52.380;7.018;2023-05-20T08:28:28;4.63;;;2.10;;
39098;SDS011;24844;52.380;7.018;2023-05-20T08:30:54;5.13;;;1.95;;
39098;SDS011;24844;52.380;7.018;2023-05-20T08:33:20;2.70;;;1.20;;
39098;SDS011;24844;52.380;7.018;2023-05-20T08:35:46;7.35;;;1.70;;
39098;SDS011;24844;52.380;7.018;2023-05-20T08:38:12;5.65;;;1.27;;
39098;SDS011;24844;52.380;7.018;2023-05-20T08:40:38;4.18;;;1.50;;
39098;SDS011;24844;52.380;7.018;2023-05-20T08:43:04;5.32;;;1.90;;
39098;SDS011;24844;52.380;7.018;2023-05-20T08:45:33;2.95;;;1.58;;
39098;SDS011;24844;52.380;7.018;2023-05-20T08:48:01;4.20;;;1.77;;
39098;SDS011;24844;52.380;7.018;2023-05-20T08:50:29;4.32;;;1.45;;
39098;SDS011;24844;52.380;7.018;2023-05-20T08:52:55;6.40;;;1.52;;
39098;SDS011;24844;52.380;7.018;2023-05-20T08:57:51;4.28;;;1.80;;
39098;SDS011;24844;52.380;7.018;2023-05-20T09:00:18;2.20;;;1.20;;
39098;SDS011;24844;52.380;7.018;2023-05-20T09:02:47;3.80;;;1.27;;
39098;SDS011;24844;52.380;7.018;2023-05-20T09:05:13;4.18;;;1.65;;
39098;SDS011;24844;52.380;7.018;2023-05-20T09:07:39;11.10;;;1.45;;
39098;SDS011;24844;52.380;7.018;2023-05-20T09:10:06;26.47;;;2.40;;
39098;SDS011;24844;52.380;7.018;2023-05-20T09:12:33;4.53;;;1.38;;
39098;SDS011;24844;52.380;7.018;2023-05-20T09:14:59;2.72;;;1.60;;
39098;SDS011;24844;52.380;7.018;2023-05-20T09:17:25;5.97;;;1.33;;
39098;SDS011;24844;52.380;7.018;2023-05-20T09:19:51;3.00;;;1.55;;
39098;SDS011;24844;52.380;7.018;2023-05-20T09:22:21;4.60;;;1.40;;
39098;SDS011;24844;52.380;7.018;2023-05-20T09:24:51;7.55;;;1.10;;
39098;SDS011;24844;52.380;7.018;2023-05-20T09:27:18;5.18;;;1.45;;
39098;SDS011;24844;52.380;7.018;2023-05-20T09:29:46;8.35;;;1.50;;
39098;SDS011;24844;52.380;7.018;2023-05-20T09:34:38;4.30;;;1.67;;
39098;SDS011;24844;52.380;7.018;2023-05-20T09:37:06;6.10;;;1.35;;
39098;SDS011;24844;52.380;7.018;2023-05-20T09:39:32;3.42;;;1.65;;
39098;SDS011;24844;52.380;7.018;2023-05-20T09:42:22;6.00;;;1.95;;
39098;SDS011;24844;52.380;7.018;2023-05-20T09:44:52;2.60;;;1.35;;
39098;SDS011;24844;52.380;7.018;2023-05-20T09:47:19;3.55;;;1.60;;
39098;SDS011;24844;52.380;7.018;2023-05-20T09:49:45;6.38;;;1.63;;
39098;SDS011;24844;52.380;7.018;2023-05-20T09:52:16;4.78;;;1.77;;
39098;SDS011;24844;52.380;7.018;2023-05-20T09:54:42;3.10;;;1.50;;
39098;SDS011;24844;52.380;7.018;2023-05-20T09:57:09;5.05;;;1.58;;
39098;SDS011;24844;52.380;7.018;2023-05-20T09:59:35;4.93;;;1.60;;
39098;SDS011;24844;52.380;7.018;2023-05-20T10:02:02;5.30;;;1.30;;
39098;SDS011;24844;52.380;7.018;2023-05-20T10:04:30;5.78;;;2.08;;
39098;SDS011;24844;52.380;7.018;2023-05-20T10:15:09;4.78;;;1.30;;
39098;SDS011;24844;52.380;7.018;2023-05-20T10:20:28;14.15;;;1.70;;
39098;SDS011;24844;52.380;7.018;2023-05-20T10:22:54;5.50;;;1.40;;
39098;SDS011;24844;52.380;7.018;2023-05-20T10:25:26;3.70;;;1.30;;
39098;SDS011;24844;52.380;7.018;2023-05-20T10:28:02;2.53;;;1.40;;
39098;SDS011;24844;52.380;7.018;2023-05-20T10:30:29;9.15;;;1.67;;
39098;SDS011;24844;52.380;7.018;2023-05-20T10:32:55;2.28;;;1.40;;
39098;SDS011;24844;52.380;7.018;2023-05-20T10:35:24;15.43;;;2.35;;
39098;SDS011;24844;52.380;7.018;2023-05-20T10:37:51;5.45;;;1.40;;
39098;SDS011;24844;52.380;7.018;2023-05-20T10:40:18;6.83;;;1.23;;
39098;SDS011;24844;52.380;7.018;2023-05-20T10:42:45;3.47;;;1.65;;
39098;SDS011;24844;52.380;7.018;2023-05-20T10:45:22;4.78;;;1.65;;
39098;SDS011;24844;52.380;7.018;2023-05-20T10:47:55;2.33;;;1.10;;
39098;SDS011;24844;52.380;7.018;2023-05-20T10:50:25;3.40;;;1.60;;
39098;SDS011;24844;52.380;7.018;2023-05-20T10:53:10;2.85;;;1.27;;
39098;SDS011;24844;52.380;7.018;2023-05-20T10:55:40;5.93;;;1.42;;
39098;SDS011;24844;52.380;7.018;2023-05-20T10:58:12;8.27;;;2.05;;
39098;SDS011;24844;52.380;7.018;2023-05-20T11:00:38;5.57;;;1.50;;
39098;SDS011;24844;52.380;7.018;2023-05-20T11:03:05;4.28;;;1.30;;
39098;SDS011;24844;52.380;7.018;2023-05-20T11:05:31;3.70;;;1.20;;
39098;SDS011;24844;52.380;7.018;2023-05-20T11:08:05;3.55;;;1.33;;
39098;SDS011;24844;52.380;7.018;2023-05-20T11:10:35;3.33;;;1.88;;
39098;SDS011;24844;52.380;7.018;2023-05-20T11:13:01;8.88;;;1.65;;
39098;SDS011;24844;52.380;7.018;2023-05-20T11:15:28;3.05;;;1.38;;
39098;SDS011;24844;52.380;7.018;2023-05-20T11:17:56;6.78;;;1.27;;
39098;SDS011;24844;52.380;7.018;2023-05-20T11:20:26;7.03;;;1.27;;
39098;SDS011;24844;52.380;7.018;2023-05-20T11:22:54;4.05;;;1.30;;
39098;SDS011;24844;52.380;7.018;2023-05-20T11:25:21;6.97;;;2.00;;
39098;SDS011;24844;52.380;7.018;2023-05-20T11:27:48;4.95;;;1.63;;
39098;SDS011;24844;52.380;7.018;2023-05-20T11:30:15;5.88;;;1.42;;
39098;SDS011;24844;52.380;7.018;2023-05-20T11:32:41;6.32;;;1.63;;
39098;SDS011;24844;52.380;7.018;2023-05-20T11:35:18;4.18;;;1.60;;
39098;SDS011;24844;52.380;7.018;2023-05-20T11:37:52;3.28;;;1.20;;
39098;SDS011;24844;52.380;7.018;2023-05-20T11:40:22;5.90;;;1.17;;
39098;SDS011;24844;52.380;7.018;2023-05-20T11:42:48;4.32;;;1.63;;
39098;SDS011;24844;52.380;7.018;2023-05-20T11:45:20;4.22;;;1.48;;
39098;SDS011;24844;52.380;7.018;2023-05-20T11:47:46;6.45;;;1.30;;
39098;SDS011;24844;52.380;7.018;2023-05-20T11:50:22;3.47;;;1.42;;
39098;SDS011;24844;52.380;7.018;2023-05-20T11:52:53;5.65;;;1.40;;
39098;SDS011;24844;52.380;7.018;2023-05-20T11:55:21;3.72;;;1.45;;
39098;SDS011;24844;52.380;7.018;2023-05-20T11:57:47;6.57;;;1.42;;
39098;SDS011;24844;52.380;7.018;2023-05-20T12:00:12;3.13;;;1.30;;
39098;SDS011;24844;52.380;7.018;2023-05-20T12:02:38;3.67;;;1.13;;
39098;SDS011;24844;52.380;7.018;2023-05-20T12:05:03;2.15;;;1.15;;
39098;SDS011;24844;52.380;7.018;2023-05-20T12:07:29;3.92;;;1.23;;
39098;SDS011;24844;52.380;7.018;2023-05-20T12:09:55;5.50;;;1.30;;
39098;SDS011;24844;52.380;7.018;2023-05-20T12:12:20;6.82;;;0.98;;
39098;SDS011;24844;52.380;7.018;2023-05-20T12:14:46;4.47;;;1.17;;
39098;SDS011;24844;52.380;7.018;2023-05-20T12:17:11;2.70;;;1.30;;
39098;SDS011;24844;52.380;7.018;2023-05-20T12:19:37;3.67;;;1.20;;
39098;SDS011;24844;52.380;7.018;2023-05-20T12:22:03;4.00;;;1.10;;
39098;SDS011;24844;52.380;7.018;2023-05-20T12:24:28;4.65;;;0.90;;
39098;SDS011;24844;52.380;7.018;2023-05-20T12:26:54;1.63;;;0.93;;
39098;SDS011;24844;52.380;7.018;2023-05-20T12:29:19;3.17;;;1.17;;
39098;SDS011;24844;52.380;7.018;2023-05-20T12:31:45;1.45;;;0.80;;
39098;SDS011;24844;52.380;7.018;2023-05-20T12:34:10;2.60;;;0.98;;
39098;SDS011;24844;52.380;7.018;2023-05-20T12:36:36;5.47;;;1.30;;
39098;SDS011;24844;52.380;7.018;2023-05-20T12:39:02;6.50;;;1.13;;
39098;SDS011;24844;52.380;7.018;2023-05-20T12:41:27;11.07;;;1.13;;
39098;SDS011;24844;52.380;7.018;2023-05-20T12:43:53;3.13;;;1.27;;
39098;SDS011;24844;52.380;7.018;2023-05-20T12:46:18;1.77;;;1.00;;
39098;SDS011;24844;52.380;7.018;2023-05-20T12:48:45;2.97;;;1.17;;
39098;SDS011;24844;52.380;7.018;2023-05-20T12:51:10;9.77;;;1.67;;
39098;SDS011;24844;52.380;7.018;2023-05-20T12:53:36;2.28;;;0.98;;
39098;SDS011;24844;52.380;7.018;2023-05-20T12:56:02;4.50;;;0.98;;
39098;SDS011;24844;52.380;7.018;2023-05-20T12:58:27;2.33;;;1.15;;
39098;SDS011;24844;52.380;7.018;2023-05-20T13:00:53;6.90;;;1.45;;
39098;SDS011;24844;52.380;7.018;2023-05-20T13:03:18;4.43;;;1.00;;
39098;SDS011;24844;52.380;7.018;2023-05-20T13:05:44;3.47;;;1.10;;
39098;SDS011;24844;52.380;7.018;2023-05-20T13:08:10;3.22;;;1.05;;
39098;SDS011;24844;52.380;7.018;2023-05-20T13:10:36;5.15;;;1.17;;
39098;SDS011;24844;52.380;7.018;2023-05-20T13:13:02;2.92;;;1.00;;
39098;SDS011;24844;52.380;7.018;2023-05-20T13:15:27;2.33;;;1.02;;
39098;SDS011;24844;52.380;7.018;2023-05-20T13:17:53;3.90;;;1.30;;
39098;SDS011;24844;52.380;7.018;2023-05-20T13:20:18;2.92;;;1.20;;
39098;SDS011;24844;52.380;7.018;2023-05-20T13:22:44;4.70;;;1.40;;
39098;SDS011;24844;52.380;7.018;2023-05-20T13:25:10;2.20;;;1.15;;
39098;SDS011;24844;52.380;7.018;2023-05-20T13:27:35;4.72;;;1.40;;
39098;SDS011;24844;52.380;7.018;2023-05-20T13:30:01;1.55;;;0.90;;
39098;SDS011;24844;52.380;7.018;2023-05-20T13:32:28;3.45;;;1.27;;
39098;SDS011;24844;52.380;7.018;2023-05-20T13:34:53;4.32;;;1.25;;
39098;SDS011;24844;52.380;7.018;2023-05-20T13:37:20;3.58;;;1.00;;
39098;SDS011;24844;52.380;7.018;2023-05-20T13:39:46;4.63;;;1.15;;
39098;SDS011;24844;52.380;7.018;2023-05-20T13:42:12;2.97;;;1.00;;
39098;SDS011;24844;52.380;7.018;2023-05-20T13:44:37;2.83;;;1.05;;
39098;SDS011;24844;52.380;7.018;2023-05-20T13:47:03;5.60;;;1.40;;
39098;SDS011;24844;52.380;7.018;2023-05-20T13:49:28;1.83;;;0.70;;
39098;SDS011;24844;52.380;7.018;2023-05-20T13:51:54;3.25;;;1.05;;
39098;SDS011;24844;52.380;7.018;2023-05-20T13:54:20;3.35;;;1.15;;
39098;SDS011;24844;52.380;7.018;2023-05-20T13:56:46;4.22;;;1.30;;
39098;SDS011;24844;52.380;7.018;2023-05-20T13:59:11;5.32;;;1.33;;
39098;SDS011;24844;52.380;7.018;2023-05-20T14:01:37;1.90;;;0.90;;
39098;SDS011;24844;52.380;7.018;2023-05-20T14:04:02;4.47;;;1.23;;
39098;SDS011;24844;52.380;7.018;2023-05-20T14:06:28;2.60;;;1.15;;
39098;SDS011;24844;52.380;7.018;2023-05-20T14:08:55;3.23;;;1.13;;
39098;SDS011;24844;52.380;7.018;2023-05-20T14:11:21;1.65;;;0.90;;
39098;SDS011;24844;52.380;7.018;2023-05-20T14:13:47;3.00;;;0.93;;
39098;SDS011;24844;52.380;7.018;2023-05-20T14:16:12;2.10;;;1.10;;
39098;SDS011;24844;52.380;7.018;2023-05-20T14:18:38;2.40;;;1.08;;
39098;SDS011;24844;52.380;7.018;2023-05-20T14:21:05;3.33;;;1.27;;
39098;SDS011;24844;52.380;7.018;2023-05-20T14:23:30;3.17;;;0.80;;
39098;SDS011;24844;52.380;7.018;2023-05-20T14:25:56;1.35;;;1.10;;
39098;SDS011;24844;52.380;7.018;2023-05-20T14:28:22;2.50;;;0.90;;
39098;SDS011;24844;52.380;7.018;2023-05-20T14:30:47;3.20;;;1.10;;
39098;SDS011;24844;52.380;7.018;2023-05-20T14:33:13;7.13;;;1.10;;
39098;SDS011;24844;52.380;7.018;2023-05-20T14:35:38;6.05;;;1.20;;
39098;SDS011;24844;52.380;7.018;2023-05-20T14:38:04;1.70;;;1.08;;
39098;SDS011;24844;52.380;7.018;2023-05-20T14:40:30;7.88;;;1.30;;
39098;SDS011;24844;52.380;7.018;2023-05-20T14:42:56;3.78;;;1.00;;
39098;SDS011;24844;52.380;7.018;2023-05-20T14:45:21;2.55;;;1.30;;
39098;SDS011;24844;52.380;7.018;2023-05-20T14:47:47;2.72;;;1.40;;
39098;SDS011;24844;52.380;7.018;2023-05-20T14:50:13;4.15;;;1.60;;
39098;SDS011;24844;52.380;7.018;2023-05-20T14:52:38;3.90;;;1.40;;
39098;SDS011;24844;52.380;7.018;2023-05-20T14:55:04;2.65;;;0.95;;
39098;SDS011;24844;52.380;7.018;2023-05-20T14:57:29;1.75;;;1.17;;
39098;SDS011;24844;52.380;7.018;2023-05-20T14:59:55;1.98;;;1.00;;
39098;SDS011;24844;52.380;7.018;2023-05-20T15:02:20;6.35;;;1.10;;